Pagrindinis puslapis
METAR-TAF:

METAR-TAF

Oro uostai :

Heidrun, Norvegija

platuma: 65-19-30N, ilguma: 007-19-36E, Aukštis: 0 m

Dabartinis oras

Ataskaita buvo paskelbta 18 minutes, ne 13:50 UTC
Vėjas 4 kt iš Rytų
Temperatūra 3°C
Drėgmė 60%
Slėgis 1002 hPa
Matomumas 10 km arba daugiau
Mažai debesys ne aukštis 3000 ft

METAR: ENHE 191350Z 08004KT 9999 FEW030 03/M04 Q1002 W///S5

Laikas: 15:08 (14:08 UTC)

Prognozė

Ataskaita buvo paskelbta 3 valandos ir 8 minutes, ne 11:00 UTC
Prognozė galioja nuo 19 metu 12 UTC su 19 metu 21 UTC
Vėjas 10 kt iš Šiaurės/Šiaurės Rytų
Matomumas 10 km arba daugiau
Mažai debesys ne aukštis 1500 ft
Su prošvaistėmis ne aukštis 4000 ft
Tapsmas
nuo 19 metu 13 UTC su 19 metu 15 UTC
Vėjas 7 kt nuo kintamojo kryptimis
Tapsmas
nuo 19 metu 17 UTC su 19 metu 18 UTC
Vėjas 15 kt iš Pietų/Pietryčių
Tapsmas
nuo 19 metu 19 UTC su 19 metu 21 UTC
Vėjas 25 kt iš Pietų/Pietryčių

TAF: ENHE 191100Z 1912/1921 02010KT 9999 FEW015 BKN040 BECMG 1913/1915 VRB07KT BECMG 1917/1918 16015KT BECMG 1919/1921 16025KT

Orai ataskaitas ir orų prognozės (METAR, TAF).

turimą stotys yra geltonos ir raudonos taškus žemėlapyje.

Perkelti pele per norėdami pamatyti stoties vardą.

Tada spustelėkite, norėdami matyti oro stebėjimo ir prognozės.

Norėdami pakeisti žemėlapį: spustelėkite ant žalios mygtukų su juodo kryžiaus žemyn,; žalią mygtuką su brūkšneliu, jei norite nutolinti; arba žalių rodyklių gretimoms žemėlapius.


METAR-TAF: